Rio Vista Municipal (O88)
Rio Vista, CA
Field Elevation: 22
Lat: 38°11.60N  Long: 121°42.22W
CTAF/Unicom Freq: 122.7250
   
     For Weather-by-Phone, call (707) 374-5396
Weather Advisories
2019-05-26   20:05 Z
Altimeter 29.85" Hg
Wind 220° @ 10 KT
Gusts 18 KT
Visibility 10 SM
Ceiling FEW036
Temperature 14° C (57° F)
Dewpoint 6° C (43° F)
Relative Humidity 57%
Density Altitude --
Condensation Altitude 4,200 feet
Wind and Runways
Indicated Runway = 25
Headwind = 9 kt
Crosswind = 5 kt
History
 
 
 
More Info
All DigiWx sites map
NOAA Forecast
 
Airport IQ 5010
(DUC) Stack Farm
(CA37) Dominican
 
about DigiWx
 
FAA Disclaimer: The data displayed is for advisory purposes only and is not to be used for flight planning or operations. For official data, please call (707) 374-5396 to hear the current automated AWOS voice message.
  METAR O88 262005Z AUTO 22010G18KT VIS 10 SM FEW036 14/06 A2985